sensor_id;sensor_type;location;lat;lon;timestamp;P1;durP1;ratioP1;P2;durP2;ratioP2
71042;SDS011;58696;52.134;5.500;2022-07-29T00:01:50;4.07;;;0.95;;
71042;SDS011;58696;52.134;5.500;2022-07-29T00:04:18;1.33;;;0.80;;
71042;SDS011;58696;52.134;5.500;2022-07-29T00:06:48;1.67;;;0.90;;
71042;SDS011;58696;52.134;5.500;2022-07-29T00:09:17;3.40;;;0.90;;
71042;SDS011;58696;52.134;5.500;2022-07-29T00:11:44;4.72;;;0.85;;
71042;SDS011;58696;52.134;5.500;2022-07-29T00:14:11;2.38;;;1.10;;
71042;SDS011;58696;52.134;5.500;2022-07-29T00:19:06;3.70;;;0.93;;
71042;SDS011;58696;52.134;5.500;2022-07-29T00:21:35;1.75;;;0.90;;
71042;SDS011;58696;52.134;5.500;2022-07-29T00:24:02;6.55;;;1.52;;
71042;SDS011;58696;52.134;5.500;2022-07-29T00:26:29;1.85;;;0.90;;
71042;SDS011;58696;52.134;5.500;2022-07-29T00:28:58;2.35;;;1.00;;
71042;SDS011;58696;52.134;5.500;2022-07-29T00:31:45;1.33;;;1.00;;
71042;SDS011;58696;52.134;5.500;2022-07-29T00:34:16;0.77;;;0.70;;
71042;SDS011;58696;52.134;5.500;2022-07-29T00:37:01;1.38;;;0.95;;
71042;SDS011;58696;52.134;5.500;2022-07-29T00:39:30;7.00;;;1.10;;
71042;SDS011;58696;52.134;5.500;2022-07-29T00:41:57;5.65;;;1.00;;
71042;SDS011;58696;52.134;5.500;2022-07-29T00:44:24;4.60;;;1.17;;
71042;SDS011;58696;52.134;5.500;2022-07-29T00:46:50;3.38;;;1.05;;
71042;SDS011;58696;52.134;5.500;2022-07-29T00:49:17;1.88;;;0.90;;
71042;SDS011;58696;52.134;5.500;2022-07-29T00:51:44;2.10;;;0.93;;
71042;SDS011;58696;52.134;5.500;2022-07-29T00:54:12;3.53;;;0.90;;
71042;SDS011;58696;52.134;5.500;2022-07-29T00:56:39;2.92;;;1.10;;
71042;SDS011;58696;52.134;5.500;2022-07-29T00:59:06;2.85;;;1.10;;
71042;SDS011;58696;52.134;5.500;2022-07-29T01:01:35;5.82;;;1.27;;
71042;SDS011;58696;52.134;5.500;2022-07-29T01:04:02;1.38;;;0.98;;
71042;SDS011;58696;52.134;5.500;2022-07-29T01:06:34;2.45;;;1.20;;
71042;SDS011;58696;52.134;5.500;2022-07-29T01:09:02;3.38;;;1.02;;
71042;SDS011;58696;52.134;5.500;2022-07-29T01:11:29;4.70;;;0.95;;
71042;SDS011;58696;52.134;5.500;2022-07-29T01:13:56;1.83;;;0.90;;
71042;SDS011;58696;52.134;5.500;2022-07-29T01:16:25;1.95;;;0.88;;
71042;SDS011;58696;52.134;5.500;2022-07-29T01:19:01;2.42;;;1.20;;
71042;SDS011;58696;52.134;5.500;2022-07-29T01:30:11;3.85;;;1.48;;
71042;SDS011;58696;52.134;5.500;2022-07-29T01:32:40;4.10;;;1.23;;
71042;SDS011;58696;52.134;5.500;2022-07-29T01:35:19;1.65;;;1.00;;
71042;SDS011;58696;52.134;5.500;2022-07-29T01:43:32;1.75;;;0.90;;
71042;SDS011;58696;52.134;5.500;2022-07-29T01:46:15;1.55;;;1.10;;
71042;SDS011;58696;52.134;5.500;2022-07-29T01:48:48;1.50;;;1.10;;
71042;SDS011;58696;52.134;5.500;2022-07-29T01:51:25;7.20;;;1.60;;
71042;SDS011;58696;52.134;5.500;2022-07-29T01:56:59;1.88;;;1.27;;
71042;SDS011;58696;52.134;5.500;2022-07-29T01:59:28;4.10;;;1.30;;
71042;SDS011;58696;52.134;5.500;2022-07-29T02:02:01;4.45;;;1.63;;
71042;SDS011;58696;52.134;5.500;2022-07-29T02:04:29;1.75;;;1.10;;
71042;SDS011;58696;52.134;5.500;2022-07-29T02:07:00;3.05;;;1.20;;
71042;SDS011;58696;52.134;5.500;2022-07-29T02:09:29;2.28;;;1.10;;
71042;SDS011;58696;52.134;5.500;2022-07-29T02:12:00;1.65;;;1.02;;
71042;SDS011;58696;52.134;5.500;2022-07-29T02:14:30;2.10;;;1.30;;
71042;SDS011;58696;52.134;5.500;2022-07-29T02:17:00;2.13;;;1.50;;
71042;SDS011;58696;52.134;5.500;2022-07-29T02:19:28;2.78;;;1.30;;
71042;SDS011;58696;52.134;5.500;2022-07-29T02:21:59;4.25;;;1.30;;
71042;SDS011;58696;52.134;5.500;2022-07-29T02:24:26;2.42;;;1.05;;
71042;SDS011;58696;52.134;5.500;2022-07-29T02:26:57;3.85;;;1.30;;
71042;SDS011;58696;52.134;5.500;2022-07-29T02:29:28;4.20;;;1.15;;
71042;SDS011;58696;52.134;5.500;2022-07-29T02:31:58;4.55;;;1.10;;
71042;SDS011;58696;52.134;5.500;2022-07-29T02:34:25;2.53;;;1.40;;
71042;SDS011;58696;52.134;5.500;2022-07-29T02:36:56;1.40;;;1.23;;
71042;SDS011;58696;52.134;5.500;2022-07-29T02:39:23;7.70;;;1.33;;
71042;SDS011;58696;52.134;5.500;2022-07-29T02:41:55;2.83;;;1.40;;
71042;SDS011;58696;52.134;5.500;2022-07-29T02:44:28;1.40;;;1.10;;
71042;SDS011;58696;52.134;5.500;2022-07-29T02:55:02;1.90;;;1.30;;
71042;SDS011;58696;52.134;5.500;2022-07-29T02:57:47;3.58;;;1.23;;
71042;SDS011;58696;52.134;5.500;2022-07-29T03:00:21;3.40;;;1.23;;
71042;SDS011;58696;52.134;5.500;2022-07-29T03:02:53;3.90;;;1.63;;
71042;SDS011;58696;52.134;5.500;2022-07-29T03:05:22;1.42;;;1.30;;
71042;SDS011;58696;52.134;5.500;2022-07-29T03:07:55;5.88;;;1.33;;
71042;SDS011;58696;52.134;5.500;2022-07-29T03:10:25;1.40;;;1.30;;
71042;SDS011;58696;52.134;5.500;2022-07-29T03:12:55;2.97;;;1.10;;
71042;SDS011;58696;52.134;5.500;2022-07-29T03:15:24;4.45;;;1.60;;
71042;SDS011;58696;52.134;5.500;2022-07-29T03:17:53;1.33;;;1.20;;
71042;SDS011;58696;52.134;5.500;2022-07-29T03:20:22;1.35;;;0.90;;
71042;SDS011;58696;52.134;5.500;2022-07-29T03:22:51;2.28;;;1.25;;
71042;SDS011;58696;52.134;5.500;2022-07-29T03:25:18;3.17;;;1.58;;
71042;SDS011;58696;52.134;5.500;2022-07-29T03:27:46;4.80;;;1.65;;
71042;SDS011;58696;52.134;5.500;2022-07-29T03:30:14;6.07;;;1.35;;
71042;SDS011;58696;52.134;5.500;2022-07-29T03:32:52;6.78;;;1.70;;
71042;SDS011;58696;52.134;5.500;2022-07-29T03:35:24;4.38;;;1.55;;
71042;SDS011;58696;52.134;5.500;2022-07-29T03:37:51;3.40;;;1.42;;
71042;SDS011;58696;52.134;5.500;2022-07-29T03:40:40;3.72;;;1.75;;
71042;SDS011;58696;52.134;5.500;2022-07-29T03:43:12;3.40;;;1.42;;
71042;SDS011;58696;52.134;5.500;2022-07-29T03:45:42;2.65;;;1.58;;
71042;SDS011;58696;52.134;5.500;2022-07-29T03:48:14;2.10;;;1.40;;
71042;SDS011;58696;52.134;5.500;2022-07-29T03:50:45;4.38;;;1.58;;
71042;SDS011;58696;52.134;5.500;2022-07-29T03:53:12;3.70;;;1.40;;
71042;SDS011;58696;52.134;5.500;2022-07-29T03:55:43;6.88;;;1.50;;
71042;SDS011;58696;52.134;5.500;2022-07-29T03:58:14;3.05;;;1.27;;
71042;SDS011;58696;52.134;5.500;2022-07-29T04:00:41;4.38;;;1.50;;
71042;SDS011;58696;52.134;5.500;2022-07-29T04:03:09;1.92;;;1.27;;
71042;SDS011;58696;52.134;5.500;2022-07-29T04:05:37;3.95;;;1.25;;
71042;SDS011;58696;52.134;5.500;2022-07-29T04:08:03;4.32;;;1.50;;
71042;SDS011;58696;52.134;5.500;2022-07-29T04:10:31;3.08;;;1.50;;
71042;SDS011;58696;52.134;5.500;2022-07-29T04:13:00;6.30;;;1.60;;
71042;SDS011;58696;52.134;5.500;2022-07-29T04:15:27;4.23;;;1.90;;
71042;SDS011;58696;52.134;5.500;2022-07-29T04:17:56;1.85;;;1.40;;
71042;SDS011;58696;52.134;5.500;2022-07-29T04:20:23;3.13;;;1.63;;
71042;SDS011;58696;52.134;5.500;2022-07-29T04:22:50;5.25;;;1.52;;
71042;SDS011;58696;52.134;5.500;2022-07-29T04:25:18;3.65;;;1.45;;
71042;SDS011;58696;52.134;5.500;2022-07-29T04:27:45;4.13;;;1.55;;
71042;SDS011;58696;52.134;5.500;2022-07-29T04:30:28;4.75;;;1.48;;
71042;SDS011;58696;52.134;5.500;2022-07-29T04:32:55;4.63;;;1.40;;
71042;SDS011;58696;52.134;5.500;2022-07-29T04:35:24;2.83;;;1.30;;
71042;SDS011;58696;52.134;5.500;2022-07-29T04:37:50;2.67;;;1.48;;
71042;SDS011;58696;52.134;5.500;2022-07-29T04:40:23;7.78;;;1.60;;
71042;SDS011;58696;52.134;5.500;2022-07-29T04:42:50;3.03;;;1.50;;
71042;SDS011;58696;52.134;5.500;2022-07-29T04:45:19;2.60;;;1.33;;
71042;SDS011;58696;52.134;5.500;2022-07-29T04:47:48;2.42;;;1.40;;
71042;SDS011;58696;52.134;5.500;2022-07-29T04:50:17;4.28;;;1.25;;
71042;SDS011;58696;52.134;5.500;2022-07-29T04:52:43;3.28;;;1.27;;
71042;SDS011;58696;52.134;5.500;2022-07-29T04:55:10;4.70;;;1.33;;
71042;SDS011;58696;52.134;5.500;2022-07-29T04:57:37;3.88;;;1.50;;
71042;SDS011;58696;52.134;5.500;2022-07-29T05:00:07;1.35;;;1.25;;
71042;SDS011;58696;52.134;5.500;2022-07-29T05:02:36;6.68;;;1.33;;
71042;SDS011;58696;52.134;5.500;2022-07-29T05:05:08;3.50;;;1.40;;
71042;SDS011;58696;52.134;5.500;2022-07-29T05:07:38;3.58;;;1.10;;
71042;SDS011;58696;52.134;5.500;2022-07-29T05:10:07;2.50;;;1.20;;
71042;SDS011;58696;52.134;5.500;2022-07-29T05:12:35;1.27;;;1.00;;
71042;SDS011;58696;52.134;5.500;2022-07-29T05:15:02;3.90;;;1.50;;
71042;SDS011;58696;52.134;5.500;2022-07-29T05:17:31;3.72;;;1.38;;
71042;SDS011;58696;52.134;5.500;2022-07-29T05:19:57;2.25;;;1.40;;
71042;SDS011;58696;52.134;5.500;2022-07-29T05:22:29;3.90;;;1.45;;
71042;SDS011;58696;52.134;5.500;2022-07-29T05:24:56;3.83;;;1.50;;
71042;SDS011;58696;52.134;5.500;2022-07-29T05:27:25;2.40;;;1.35;;
71042;SDS011;58696;52.134;5.500;2022-07-29T05:29:52;1.35;;;1.25;;
71042;SDS011;58696;52.134;5.500;2022-07-29T05:32:19;5.22;;;1.52;;
71042;SDS011;58696;52.134;5.500;2022-07-29T05:34:48;2.95;;;1.40;;
71042;SDS011;58696;52.134;5.500;2022-07-29T05:37:18;5.00;;;1.38;;
71042;SDS011;58696;52.134;5.500;2022-07-29T05:39:45;2.80;;;1.40;;
71042;SDS011;58696;52.134;5.500;2022-07-29T05:42:16;3.30;;;1.40;;
71042;SDS011;58696;52.134;5.500;2022-07-29T05:44:47;2.45;;;1.20;;
71042;SDS011;58696;52.134;5.500;2022-07-29T05:47:14;1.92;;;1.27;;
71042;SDS011;58696;52.134;5.500;2022-07-29T05:49:40;1.98;;;1.30;;
71042;SDS011;58696;52.134;5.500;2022-07-29T05:52:10;6.10;;;1.50;;
71042;SDS011;58696;52.134;5.500;2022-07-29T05:54:42;2.10;;;1.20;;
71042;SDS011;58696;52.134;5.500;2022-07-29T05:57:27;3.05;;;1.35;;
71042;SDS011;58696;52.134;5.500;2022-07-29T05:59:53;2.75;;;1.58;;
71042;SDS011;58696;52.134;5.500;2022-07-29T06:02:21;2.13;;;1.50;;
71042;SDS011;58696;52.134;5.500;2022-07-29T06:04:48;4.10;;;1.13;;
71042;SDS011;58696;52.134;5.500;2022-07-29T06:09:42;2.38;;;1.67;;
71042;SDS011;58696;52.134;5.500;2022-07-29T06:12:09;4.65;;;1.50;;
71042;SDS011;58696;52.134;5.500;2022-07-29T06:14:37;6.45;;;1.40;;
71042;SDS011;58696;52.134;5.500;2022-07-29T06:17:04;4.70;;;1.80;;
71042;SDS011;58696;52.134;5.500;2022-07-29T06:19:34;2.00;;;1.50;;
71042;SDS011;58696;52.134;5.500;2022-07-29T06:22:01;2.13;;;1.33;;
71042;SDS011;58696;52.134;5.500;2022-07-29T06:24:30;1.92;;;1.38;;
71042;SDS011;58696;52.134;5.500;2022-07-29T06:26:58;1.45;;;1.20;;
71042;SDS011;58696;52.134;5.500;2022-07-29T06:29:25;2.25;;;1.40;;
71042;SDS011;58696;52.134;5.500;2022-07-29T06:31:52;6.53;;;1.70;;
71042;SDS011;58696;52.134;5.500;2022-07-29T06:34:18;3.33;;;1.52;;
71042;SDS011;58696;52.134;5.500;2022-07-29T06:36:46;4.90;;;1.63;;
71042;SDS011;58696;52.134;5.500;2022-07-29T06:39:17;2.63;;;1.60;;
71042;SDS011;58696;52.134;5.500;2022-07-29T06:41:48;1.98;;;1.30;;
71042;SDS011;58696;52.134;5.500;2022-07-29T06:44:17;2.05;;;1.58;;
71042;SDS011;58696;52.134;5.500;2022-07-29T06:46:44;6.47;;;2.00;;
71042;SDS011;58696;52.134;5.500;2022-07-29T06:49:15;4.60;;;1.70;;
71042;SDS011;58696;52.134;5.500;2022-07-29T06:51:44;6.93;;;1.88;;
71042;SDS011;58696;52.134;5.500;2022-07-29T06:54:11;2.90;;;1.70;;
71042;SDS011;58696;52.134;5.500;2022-07-29T06:56:38;4.50;;;1.80;;
71042;SDS011;58696;52.134;5.500;2022-07-29T06:59:09;4.03;;;1.42;;
71042;SDS011;58696;52.134;5.500;2022-07-29T07:01:38;3.00;;;1.60;;
71042;SDS011;58696;52.134;5.500;2022-07-29T07:04:07;4.18;;;1.70;;
71042;SDS011;58696;52.134;5.500;2022-07-29T07:06:37;5.63;;;1.73;;
71042;SDS011;58696;52.134;5.500;2022-07-29T07:09:04;9.52;;;1.70;;
71042;SDS011;58696;52.134;5.500;2022-07-29T07:11:31;4.63;;;1.75;;
71042;SDS011;58696;52.134;5.500;2022-07-29T07:13:57;2.75;;;1.85;;
71042;SDS011;58696;52.134;5.500;2022-07-29T07:16:28;3.70;;;1.70;;
71042;SDS011;58696;52.134;5.500;2022-07-29T07:18:55;4.93;;;1.88;;
71042;SDS011;58696;52.134;5.500;2022-07-29T07:21:22;3.40;;;1.80;;
71042;SDS011;58696;52.134;5.500;2022-07-29T07:23:48;3.42;;;1.80;;
71042;SDS011;58696;52.134;5.500;2022-07-29T07:26:15;3.45;;;1.67;;
71042;SDS011;58696;52.134;5.500;2022-07-29T07:28:42;4.65;;;1.50;;
71042;SDS011;58696;52.134;5.500;2022-07-29T07:31:08;1.95;;;1.65;;
71042;SDS011;58696;52.134;5.500;2022-07-29T07:33:35;2.85;;;1.55;;
71042;SDS011;58696;52.134;5.500;2022-07-29T07:36:03;5.75;;;1.85;;
71042;SDS011;58696;52.134;5.500;2022-07-29T07:38:30;3.67;;;1.83;;
71042;SDS011;58696;52.134;5.500;2022-07-29T07:40:57;2.77;;;1.70;;
71042;SDS011;58696;52.134;5.500;2022-07-29T07:43:28;8.55;;;1.85;;
71042;SDS011;58696;52.134;5.500;2022-07-29T07:45:55;3.80;;;1.65;;
71042;SDS011;58696;52.134;5.500;2022-07-29T07:48:24;6.55;;;1.90;;
71042;SDS011;58696;52.134;5.500;2022-07-29T07:50:51;4.68;;;1.67;;
71042;SDS011;58696;52.134;5.500;2022-07-29T07:53:17;3.43;;;1.73;;
71042;SDS011;58696;52.134;5.500;2022-07-29T07:55:44;3.33;;;1.70;;
71042;SDS011;58696;52.134;5.500;2022-07-29T07:58:33;6.35;;;1.60;;
71042;SDS011;58696;52.134;5.500;2022-07-29T08:01:01;2.67;;;1.90;;
71042;SDS011;58696;52.134;5.500;2022-07-29T08:03:33;5.47;;;1.90;;
71042;SDS011;58696;52.134;5.500;2022-07-29T08:05:59;5.63;;;2.05;;
71042;SDS011;58696;52.134;5.500;2022-07-29T08:08:26;2.23;;;1.53;;
71042;SDS011;58696;52.134;5.500;2022-07-29T08:10:53;3.67;;;1.70;;
71042;SDS011;58696;52.134;5.500;2022-07-29T08:13:23;4.32;;;1.80;;
71042;SDS011;58696;52.134;5.500;2022-07-29T08:15:56;5.30;;;1.90;;
71042;SDS011;58696;52.134;5.500;2022-07-29T08:18:29;5.38;;;1.60;;
71042;SDS011;58696;52.134;5.500;2022-07-29T08:20:56;5.85;;;2.03;;
71042;SDS011;58696;52.134;5.500;2022-07-29T08:23:24;3.90;;;1.80;;
71042;SDS011;58696;52.134;5.500;2022-07-29T08:26:13;2.03;;;1.60;;
71042;SDS011;58696;52.134;5.500;2022-07-29T08:28:41;8.77;;;1.60;;
71042;SDS011;58696;52.134;5.500;2022-07-29T08:31:15;6.15;;;1.90;;
71042;SDS011;58696;52.134;5.500;2022-07-29T08:33:43;2.22;;;1.60;;
71042;SDS011;58696;52.134;5.500;2022-07-29T08:36:10;3.10;;;2.03;;
71042;SDS011;58696;52.134;5.500;2022-07-29T08:38:36;6.07;;;1.93;;
71042;SDS011;58696;52.134;5.500;2022-07-29T08:41:06;1.60;;;1.50;;
71042;SDS011;58696;52.134;5.500;2022-07-29T08:43:35;4.43;;;1.58;;
71042;SDS011;58696;52.134;5.500;2022-07-29T08:46:03;3.63;;;1.85;;
71042;SDS011;58696;52.134;5.500;2022-07-29T08:48:33;3.05;;;1.75;;
71042;SDS011;58696;52.134;5.500;2022-07-29T08:51:02;1.95;;;1.58;;
71042;SDS011;58696;52.134;5.500;2022-07-29T08:53:30;1.88;;;1.70;;
71042;SDS011;58696;52.134;5.500;2022-07-29T08:55:58;2.97;;;1.60;;
71042;SDS011;58696;52.134;5.500;2022-07-29T08:58:30;3.00;;;1.80;;
71042;SDS011;58696;52.134;5.500;2022-07-29T09:01:02;4.13;;;1.73;;
71042;SDS011;58696;52.134;5.500;2022-07-29T09:03:33;3.10;;;1.77;;
71042;SDS011;58696;52.134;5.500;2022-07-29T09:06:02;9.15;;;1.80;;
71042;SDS011;58696;52.134;5.500;2022-07-29T09:08:32;6.22;;;2.05;;
71042;SDS011;58696;52.134;5.500;2022-07-29T09:11:04;9.02;;;2.25;;
71042;SDS011;58696;52.134;5.500;2022-07-29T09:13:33;8.77;;;1.80;;
71042;SDS011;58696;52.134;5.500;2022-07-29T09:16:02;2.72;;;1.90;;
71042;SDS011;58696;52.134;5.500;2022-07-29T09:18:43;3.13;;;1.83;;
71042;SDS011;58696;52.134;5.500;2022-07-29T09:21:12;2.47;;;1.65;;
71042;SDS011;58696;52.134;5.500;2022-07-29T09:24:09;3.58;;;1.83;;
71042;SDS011;58696;52.134;5.500;2022-07-29T09:26:44;3.17;;;1.60;;
71042;SDS011;58696;52.134;5.500;2022-07-29T09:29:13;8.25;;;2.10;;
71042;SDS011;58696;52.134;5.500;2022-07-29T09:31:42;4.88;;;2.08;;
71042;SDS011;58696;52.134;5.500;2022-07-29T09:34:14;14.32;;;2.05;;
71042;SDS011;58696;52.134;5.500;2022-07-29T09:36:43;3.53;;;1.75;;
71042;SDS011;58696;52.134;5.500;2022-07-29T09:39:12;2.50;;;1.55;;
71042;SDS011;58696;52.134;5.500;2022-07-29T09:41:46;3.70;;;1.80;;
71042;SDS011;58696;52.134;5.500;2022-07-29T09:44:19;8.88;;;2.28;;
71042;SDS011;58696;52.134;5.500;2022-07-29T09:49:33;4.32;;;1.92;;
71042;SDS011;58696;52.134;5.500;2022-07-29T09:52:20;5.00;;;1.50;;
71042;SDS011;58696;52.134;5.500;2022-07-29T09:54:47;3.20;;;1.65;;
71042;SDS011;58696;52.134;5.500;2022-07-29T09:57:22;2.47;;;1.52;;
71042;SDS011;58696;52.134;5.500;2022-07-29T10:02:28;6.55;;;2.30;;
71042;SDS011;58696;52.134;5.500;2022-07-29T10:04:57;9.73;;;1.92;;
71042;SDS011;58696;52.134;5.500;2022-07-29T10:07:25;4.13;;;2.15;;
71042;SDS011;58696;52.134;5.500;2022-07-29T10:12:23;2.17;;;1.70;;
71042;SDS011;58696;52.134;5.500;2022-07-29T10:14:50;4.93;;;2.00;;
71042;SDS011;58696;52.134;5.500;2022-07-29T10:17:17;2.88;;;1.80;;
71042;SDS011;58696;52.134;5.500;2022-07-29T10:19:45;3.65;;;2.15;;
71042;SDS011;58696;52.134;5.500;2022-07-29T10:22:13;4.97;;;2.10;;
71042;SDS011;58696;52.134;5.500;2022-07-29T10:25:00;3.47;;;1.88;;
71042;SDS011;58696;52.134;5.500;2022-07-29T10:27:31;3.00;;;2.05;;
71042;SDS011;58696;52.134;5.500;2022-07-29T10:29:59;5.43;;;2.10;;
71042;SDS011;58696;52.134;5.500;2022-07-29T10:32:36;4.45;;;2.17;;
71042;SDS011;58696;52.134;5.500;2022-07-29T10:44:21;5.30;;;1.80;;
71042;SDS011;58696;52.134;5.500;2022-07-29T10:46:50;5.15;;;2.15;;
71042;SDS011;58696;52.134;5.500;2022-07-29T10:49:21;4.22;;;1.88;;
71042;SDS011;58696;52.134;5.500;2022-07-29T10:52:05;3.38;;;2.00;;
71042;SDS011;58696;52.134;5.500;2022-07-29T11:00:28;4.15;;;2.00;;
71042;SDS011;58696;52.134;5.500;2022-07-29T11:02:56;4.25;;;2.17;;
71042;SDS011;58696;52.134;5.500;2022-07-29T11:05:24;2.28;;;1.70;;
71042;SDS011;58696;52.134;5.500;2022-07-29T11:10:46;8.63;;;2.10;;
71042;SDS011;58696;52.134;5.500;2022-07-29T11:16:12;4.70;;;1.80;;
71042;SDS011;58696;52.134;5.500;2022-07-29T11:21:51;20.48;;;3.05;;
71042;SDS011;58696;52.134;5.500;2022-07-29T11:27:08;8.45;;;2.50;;
71042;SDS011;58696;52.134;5.500;2022-07-29T11:29:52;8.10;;;2.15;;
71042;SDS011;58696;52.134;5.500;2022-07-29T11:32:22;3.78;;;2.22;;
71042;SDS011;58696;52.134;5.500;2022-07-29T11:43:52;3.13;;;1.90;;
71042;SDS011;58696;52.134;5.500;2022-07-29T11:49:21;7.20;;;2.20;;
71042;SDS011;58696;52.134;5.500;2022-07-29T11:51:58;5.35;;;1.90;;
71042;SDS011;58696;52.134;5.500;2022-07-29T11:54:32;16.75;;;2.50;;
71042;SDS011;58696;52.134;5.500;2022-07-29T11:57:23;6.95;;;2.45;;
71042;SDS011;58696;52.134;5.500;2022-07-29T12:00:03;3.25;;;2.08;;
71042;SDS011;58696;52.134;5.500;2022-07-29T12:02:40;7.90;;;3.00;;
71042;SDS011;58696;52.134;5.500;2022-07-29T12:08:20;3.95;;;2.45;;
71042;SDS011;58696;52.134;5.500;2022-07-29T12:10:52;6.90;;;2.00;;
71042;SDS011;58696;52.134;5.500;2022-07-29T12:13:20;6.78;;;2.42;;
71042;SDS011;58696;52.134;5.500;2022-07-29T12:16:03;3.25;;;1.95;;
71042;SDS011;58696;52.134;5.500;2022-07-29T12:18:31;2.95;;;1.90;;
71042;SDS011;58696;52.134;5.500;2022-07-29T12:20:59;6.50;;;2.15;;
71042;SDS011;58696;52.134;5.500;2022-07-29T12:23:33;4.40;;;2.47;;
71042;SDS011;58696;52.134;5.500;2022-07-29T12:26:03;8.32;;;2.42;;
71042;SDS011;58696;52.134;5.500;2022-07-29T12:28:38;6.75;;;2.17;;
71042;SDS011;58696;52.134;5.500;2022-07-29T12:31:05;4.45;;;2.50;;
71042;SDS011;58696;52.134;5.500;2022-07-29T12:33:39;4.75;;;2.03;;
71042;SDS011;58696;52.134;5.500;2022-07-29T12:36:06;7.35;;;2.65;;
71042;SDS011;58696;52.134;5.500;2022-07-29T12:38:42;3.08;;;2.00;;
71042;SDS011;58696;52.134;5.500;2022-07-29T12:41:13;4.75;;;2.33;;
71042;SDS011;58696;52.134;5.500;2022-07-29T12:43:51;4.85;;;1.92;;
71042;SDS011;58696;52.134;5.500;2022-07-29T12:46:20;7.15;;;2.08;;
71042;SDS011;58696;52.134;5.500;2022-07-29T12:48:50;7.85;;;2.47;;
71042;SDS011;58696;52.134;5.500;2022-07-29T12:51:34;11.18;;;1.95;;
71042;SDS011;58696;52.134;5.500;2022-07-29T12:54:06;9.30;;;2.17;;
71042;SDS011;58696;52.134;5.500;2022-07-29T12:56:37;8.52;;;2.38;;
71042;SDS011;58696;52.134;5.500;2022-07-29T12:59:16;8.57;;;2.53;;
71042;SDS011;58696;52.134;5.500;2022-07-29T13:01:47;6.82;;;2.40;;
71042;SDS011;58696;52.134;5.500;2022-07-29T13:04:31;5.75;;;2.08;;
71042;SDS011;58696;52.134;5.500;2022-07-29T13:07:03;5.35;;;2.70;;
71042;SDS011;58696;52.134;5.500;2022-07-29T13:09:39;4.82;;;1.85;;
71042;SDS011;58696;52.134;5.500;2022-07-29T13:12:11;2.67;;;1.92;;
71042;SDS011;58696;52.134;5.500;2022-07-29T13:14:45;5.45;;;2.03;;
71042;SDS011;58696;52.134;5.500;2022-07-29T13:17:17;4.72;;;2.30;;
71042;SDS011;58696;52.134;5.500;2022-07-29T13:20:07;3.08;;;1.88;;
71042;SDS011;58696;52.134;5.500;2022-07-29T13:22:41;3.88;;;1.90;;
71042;SDS011;58696;52.134;5.500;2022-07-29T13:25:11;6.22;;;1.95;;
71042;SDS011;58696;52.134;5.500;2022-07-29T13:27:38;4.70;;;1.98;;
71042;SDS011;58696;52.134;5.500;2022-07-29T13:30:08;6.53;;;2.22;;
71042;SDS011;58696;52.134;5.500;2022-07-29T13:32:36;5.72;;;1.73;;
71042;SDS011;58696;52.134;5.500;2022-07-29T13:35:05;5.05;;;1.80;;
71042;SDS011;58696;52.134;5.500;2022-07-29T13:37:33;5.38;;;1.98;;
71042;SDS011;58696;52.134;5.500;2022-07-29T13:40:02;7.53;;;1.90;;
71042;SDS011;58696;52.134;5.500;2022-07-29T13:42:29;6.03;;;1.75;;
71042;SDS011;58696;52.134;5.500;2022-07-29T13:44:58;4.88;;;1.60;;
71042;SDS011;58696;52.134;5.500;2022-07-29T13:47:25;6.43;;;1.80;;
71042;SDS011;58696;52.134;5.500;2022-07-29T13:49:58;5.22;;;1.83;;
71042;SDS011;58696;52.134;5.500;2022-07-29T13:52:31;2.40;;;1.60;;
71042;SDS011;58696;52.134;5.500;2022-07-29T13:54:58;2.53;;;1.65;;
71042;SDS011;58696;52.134;5.500;2022-07-29T13:57:26;4.88;;;1.90;;
71042;SDS011;58696;52.134;5.500;2022-07-29T13:59:54;6.53;;;1.90;;
71042;SDS011;58696;52.134;5.500;2022-07-29T14:04:51;4.65;;;1.73;;
71042;SDS011;58696;52.134;5.500;2022-07-29T14:07:22;6.78;;;1.63;;
71042;SDS011;58696;52.134;5.500;2022-07-29T14:09:51;2.95;;;1.60;;
71042;SDS011;58696;52.134;5.500;2022-07-29T14:12:18;5.68;;;1.67;;
71042;SDS011;58696;52.134;5.500;2022-07-29T14:17:12;3.17;;;1.55;;
71042;SDS011;58696;52.134;5.500;2022-07-29T14:19:39;1.88;;;1.65;;
71042;SDS011;58696;52.134;5.500;2022-07-29T14:22:06;9.32;;;2.63;;
71042;SDS011;58696;52.134;5.500;2022-07-29T14:24:36;3.22;;;1.50;;
71042;SDS011;58696;52.134;5.500;2022-07-29T14:27:04;6.68;;;1.77;;
71042;SDS011;58696;52.134;5.500;2022-07-29T14:29:34;6.68;;;1.67;;
71042;SDS011;58696;52.134;5.500;2022-07-29T14:32:04;3.35;;;1.70;;
71042;SDS011;58696;52.134;5.500;2022-07-29T14:34:33;5.75;;;1.80;;
71042;SDS011;58696;52.134;5.500;2022-07-29T14:37:02;3.97;;;1.70;;
71042;SDS011;58696;52.134;5.500;2022-07-29T14:39:32;5.03;;;2.00;;
71042;SDS011;58696;52.134;5.500;2022-07-29T14:42:08;3.95;;;1.75;;
71042;SDS011;58696;52.134;5.500;2022-07-29T14:44:38;3.10;;;2.03;;
71042;SDS011;58696;52.134;5.500;2022-07-29T14:47:09;6.40;;;1.70;;
71042;SDS011;58696;52.134;5.500;2022-07-29T14:49:36;8.48;;;2.20;;
71042;SDS011;58696;52.134;5.500;2022-07-29T14:54:31;6.20;;;2.40;;
71042;SDS011;58696;52.134;5.500;2022-07-29T14:57:00;3.42;;;1.67;;
71042;SDS011;58696;52.134;5.500;2022-07-29T14:59:27;3.47;;;1.77;;
71042;SDS011;58696;52.134;5.500;2022-07-29T15:01:54;3.67;;;1.73;;
71042;SDS011;58696;52.134;5.500;2022-07-29T15:04:22;5.40;;;2.10;;
71042;SDS011;58696;52.134;5.500;2022-07-29T15:06:49;9.55;;;2.00;;
71042;SDS011;58696;52.134;5.500;2022-07-29T15:09:16;7.50;;;2.25;;
71042;SDS011;58696;52.134;5.500;2022-07-29T15:11:42;6.78;;;2.40;;
71042;SDS011;58696;52.134;5.500;2022-07-29T15:14:09;8.02;;;1.92;;
71042;SDS011;58696;52.134;5.500;2022-07-29T15:16:37;10.70;;;2.30;;
71042;SDS011;58696;52.134;5.500;2022-07-29T15:19:08;5.63;;;2.30;;
71042;SDS011;58696;52.134;5.500;2022-07-29T15:21:35;8.95;;;2.47;;
71042;SDS011;58696;52.134;5.500;2022-07-29T15:24:14;7.72;;;2.83;;
71042;SDS011;58696;52.134;5.500;2022-07-29T15:26:46;7.07;;;2.50;;
71042;SDS011;58696;52.134;5.500;2022-07-29T15:29:13;9.02;;;2.10;;
71042;SDS011;58696;52.134;5.500;2022-07-29T15:31:42;8.02;;;2.53;;
71042;SDS011;58696;52.134;5.500;2022-07-29T15:34:09;6.70;;;2.17;;
71042;SDS011;58696;52.134;5.500;2022-07-29T15:36:36;8.48;;;2.45;;
71042;SDS011;58696;52.134;5.500;2022-07-29T15:39:23;7.47;;;2.28;;
71042;SDS011;58696;52.134;5.500;2022-07-29T15:41:51;3.35;;;1.92;;
71042;SDS011;58696;52.134;5.500;2022-07-29T15:44:18;6.68;;;1.83;;
71042;SDS011;58696;52.134;5.500;2022-07-29T15:46:46;3.25;;;1.80;;
71042;SDS011;58696;52.134;5.500;2022-07-29T15:49:32;11.82;;;2.20;;
71042;SDS011;58696;52.134;5.500;2022-07-29T15:52:14;9.82;;;2.10;;
71042;SDS011;58696;52.134;5.500;2022-07-29T15:54:51;3.53;;;1.58;;
71042;SDS011;58696;52.134;5.500;2022-07-29T15:57:19;5.32;;;1.40;;
71042;SDS011;58696;52.134;5.500;2022-07-29T15:59:46;3.67;;;1.95;;
71042;SDS011;58696;52.134;5.500;2022-07-29T16:02:13;5.57;;;1.38;;
71042;SDS011;58696;52.134;5.500;2022-07-29T16:04:41;3.13;;;1.40;;
71042;SDS011;58696;52.134;5.500;2022-07-29T16:07:08;7.88;;;1.92;;
71042;SDS011;58696;52.134;5.500;2022-07-29T16:09:34;1.83;;;1.33;;
71042;SDS011;58696;52.134;5.500;2022-07-29T16:12:01;7.93;;;1.70;;
71042;SDS011;58696;52.134;5.500;2022-07-29T16:14:42;7.80;;;1.80;;
71042;SDS011;58696;52.134;5.500;2022-07-29T16:17:10;3.55;;;1.90;;
71042;SDS011;58696;52.134;5.500;2022-07-29T16:19:41;3.63;;;1.40;;
71042;SDS011;58696;52.134;5.500;2022-07-29T16:22:09;5.35;;;1.52;;
71042;SDS011;58696;52.134;5.500;2022-07-29T16:24:37;4.78;;;1.33;;
71042;SDS011;58696;52.134;5.500;2022-07-29T16:27:05;2.05;;;1.27;;
71042;SDS011;58696;52.134;5.500;2022-07-29T16:29:34;3.95;;;1.10;;
71042;SDS011;58696;52.134;5.500;2022-07-29T16:32:03;5.82;;;1.20;;
71042;SDS011;58696;52.134;5.500;2022-07-29T16:34:30;4.00;;;1.50;;